Poughkeepsie, NY

1:03 PM EST on February 07, 2016 (GMT -0500)
Arlington | | Change Station
CLOSE
Current Station
Personal Weather Station
Location: Poughkeepsie, NY
Elevation: 220 ft
Nearby Weather Stations

Elev 220 ft 41.71 °N, 73.90 °W | Updated 2 minutes ago

Clear
Clear
49.1 °F
Feels Like 49 °F
N
0.0
Wind Variable Wind from South
Gusts 5.4 mph

Today
High -- | Low -- °F
--% Chance of Precip.
Yesterday
High -- | Low -- °F
Precip. -- in
Pressure 30.09 in
Visibility 10.0 miles
Clouds Clear
Windchill 49 °F
Dew Point 20 °F
Humidity 31%
Rainfall 0.00 in
Snow Depth Not available.
7:01 AM 5:18 PM
Waning Crescent, 1% visible
METAR KPOU 071753Z 00000KT 10SM CLR 08/M08 A3010 RMK AO2 SLP190 T00831083 10083 21067 58023
Pressure 30.09 in
Visibility 10.0 miles
Clouds Clear
Windchill 49 °F
Dew Point 20 °F
Humidity 31%
Rainfall 0.00 in
Snow Depth Not available.
7:01 AM 5:18 PM
Waning Crescent, 1% visible
METAR KPOU 071753Z 00000KT 10SM CLR 08/M08 A3010 RMK AO2 SLP190 T00831083 10083 21067 58023

10-Day Weather Forecast

Almanac

Astronomy

Feb. 07, 2016 Rise Set
Actual Time
Civil Twilight
Nautical Twilight
Astronomical Twilight
Moon
Length of Visible Light
Length of Day
Tomorrow will be .
, % of the Moon is Illuminated

Today's Extremes

State Highs State Lows

Community

WunderPhotos

Upload Photos

1,891,263 photos uploaded!

WunderBlog® & News

Nearby

Air Quality

  Air Quality AQ Index Pollutant
Not available.

Snow Depth

Station Depth Elevation

Earthquake Activity

City Distance Mag. Time & Date
Minimum magnitude displayed is 2.5.

Coastal Water Temperatures

Place Temperature

Stations

Nearby Weather Stations

Station Location Temp. Windchill Dew Point Humidity Wind Precip. Elev Updated Type
                   

Watches & Warnings

There are currently no watches in effect.